Time;durP1;ratioP1;P1;durP2;ratioP2;P2;SDS_P1;SDS_P2;PMS_P1;PMS_P2;Temp;Humidity;BMP_temperature;BMP_pressure;BME280_temperature;BME280_humidity;BME280_pressure;Samples;Min_cycle;Max_cycle;Signal;HPM_P1;HPM_P2
2023/10/27 00:01:59;;;;;;;62.80;26.75;;;;;;;;;;5102965;28;20046;-62
2023/10/27 00:04:25;;;;;;;66.30;27.63;;;;;;;;;;5120390;28;20042;-62
2023/10/27 00:06:51;;;;;;;62.70;26.10;;;;;;;;;;5120342;28;20050;-62
2023/10/27 00:09:17;;;;;;;63.83;25.85;;;;;;;;;;5102638;28;20126;-62
2023/10/27 00:11:45;;;;;;;61.20;26.00;;;;;;;;;;5116812;27;20134;-62
2023/10/27 00:14:14;;;;;;;61.65;26.00;;;;;;;;;;5100249;28;20052;-62
2023/10/27 00:16:43;;;;;;;62.85;26.35;;;;;;;;;;5081953;28;20127;-62
2023/10/27 00:19:14;;;;;;;62.95;25.50;;;;;;;;;;5100084;28;20036;-62
2023/10/27 00:21:43;;;;;;;61.33;25.25;;;;;;;;;;5100172;28;20044;-63
2023/10/27 00:24:12;;;;;;;60.03;24.55;;;;;;;;;;5100013;28;20464;-62
2023/10/27 00:26:38;;;;;;;62.10;26.33;;;;;;;;;;5100049;28;20047;-62
2023/10/27 00:29:04;;;;;;;59.28;24.70;;;;;;;;;;5100288;28;20040;-62
2023/10/27 00:31:30;;;;;;;61.38;25.73;;;;;;;;;;5081907;28;20046;-62
2023/10/27 00:33:59;;;;;;;59.03;24.63;;;;;;;;;;5121715;27;20043;-62
2023/10/27 00:36:28;;;;;;;57.85;24.65;;;;;;;;;;5140918;27;20043;-62
2023/10/27 00:38:54;;;;;;;57.08;24.15;;;;;;;;;;5141766;27;20341;-62
2023/10/27 00:41:20;;;;;;;57.08;24.55;;;;;;;;;;5137200;27;20159;-62
2023/10/27 00:43:52;;;;;;;56.30;22.20;;;;;;;;;;5137576;27;20035;-62
2023/10/27 00:46:18;;;;;;;57.10;24.02;;;;;;;;;;5137569;27;20091;-62
2023/10/27 00:48:47;;;;;;;55.25;23.73;;;;;;;;;;5138172;27;20046;-62
2023/10/27 00:51:13;;;;;;;57.50;24.20;;;;;;;;;;5102570;27;20039;-62
2023/10/27 00:53:40;;;;;;;60.15;24.45;;;;;;;;;;5137537;27;20235;-62
2023/10/27 00:56:06;;;;;;;55.65;22.58;;;;;;;;;;5137376;27;20534;-62
2023/10/27 00:58:35;;;;;;;57.58;23.63;;;;;;;;;;5137381;27;20050;-62
2023/10/27 01:01:02;;;;;;;57.30;24.20;;;;;;;;;;5137567;27;20493;-62
2023/10/27 01:03:28;;;;;;;59.33;24.45;;;;;;;;;;5122082;27;20040;-62
2023/10/27 01:05:54;;;;;;;58.85;24.27;;;;;;;;;;5116285;28;20547;-62
2023/10/27 01:08:20;;;;;;;54.00;23.42;;;;;;;;;;5116912;28;20127;-62
2023/10/27 01:10:46;;;;;;;58.33;24.70;;;;;;;;;;5116527;28;20040;-62
2023/10/27 01:13:12;;;;;;;57.42;23.63;;;;;;;;;;5115566;28;20047;-62
2023/10/27 01:15:41;;;;;;;54.92;22.98;;;;;;;;;;5116772;28;20131;-62
2023/10/27 01:18:07;;;;;;;55.80;22.75;;;;;;;;;;5098449;28;20043;-62
2023/10/27 01:20:33;;;;;;;58.70;24.80;;;;;;;;;;5098023;28;20043;-62
2023/10/27 01:23:01;;;;;;;59.33;23.30;;;;;;;;;;5116260;28;20039;-62
2023/10/27 01:25:27;;;;;;;61.78;25.17;;;;;;;;;;5116297;28;20417;-62
2023/10/27 01:27:53;;;;;;;62.22;25.05;;;;;;;;;;5116754;28;20035;-62
2023/10/27 01:30:19;;;;;;;57.70;23.38;;;;;;;;;;5116767;28;20364;-62
2023/10/27 01:32:45;;;;;;;53.58;21.02;;;;;;;;;;5098499;28;20051;-62
2023/10/27 01:35:12;;;;;;;55.25;22.05;;;;;;;;;;5115769;28;20468;-62
2023/10/27 01:37:38;;;;;;;58.97;23.98;;;;;;;;;;5116120;28;20058;-62
2023/10/27 01:40:05;;;;;;;60.13;24.50;;;;;;;;;;5115991;28;20464;-62
2023/10/27 01:42:34;;;;;;;60.25;25.13;;;;;;;;;;5115977;28;20044;-62
2023/10/27 01:45:03;;;;;;;60.72;25.65;;;;;;;;;;5097957;28;20043;-62
2023/10/27 01:47:29;;;;;;;55.60;23.38;;;;;;;;;;5116411;28;20040;-62
2023/10/27 01:49:56;;;;;;;55.72;23.25;;;;;;;;;;5116699;28;20359;-63
2023/10/27 01:52:22;;;;;;;57.67;24.55;;;;;;;;;;5116033;28;20043;-62
2023/10/27 01:54:50;;;;;;;62.17;24.70;;;;;;;;;;5116004;28;20142;-62
2023/10/27 01:57:20;;;;;;;59.35;24.52;;;;;;;;;;5115709;28;20063;-62
2023/10/27 01:59:48;;;;;;;61.83;24.23;;;;;;;;;;5097686;28;20058;-62
2023/10/27 02:02:15;;;;;;;65.32;25.55;;;;;;;;;;5116099;28;20356;-62
2023/10/27 02:04:41;;;;;;;64.00;25.85;;;;;;;;;;5097888;28;20080;-62
2023/10/27 02:07:08;;;;;;;63.63;26.40;;;;;;;;;;5115274;28;20047;-62
2023/10/27 02:09:36;;;;;;;66.63;26.10;;;;;;;;;;5115451;28;20081;-62
2023/10/27 02:12:07;;;;;;;69.07;26.42;;;;;;;;;;5097418;28;20463;-62
2023/10/27 02:14:33;;;;;;;63.63;24.83;;;;;;;;;;5115410;28;20047;-62
2023/10/27 02:16:59;;;;;;;65.97;26.77;;;;;;;;;;5115201;28;20059;-62
2023/10/27 02:19:25;;;;;;;66.47;24.65;;;;;;;;;;5115520;28;20130;-62
2023/10/27 02:21:54;;;;;;;65.28;25.13;;;;;;;;;;5096740;28;20498;-62
2023/10/27 02:24:26;;;;;;;68.63;26.50;;;;;;;;;;5115366;28;20043;-62
2023/10/27 02:26:58;;;;;;;69.43;26.75;;;;;;;;;;5115367;28;20043;-62
2023/10/27 02:29:24;;;;;;;73.40;28.55;;;;;;;;;;5115676;28;20039;-62
2023/10/27 02:31:50;;;;;;;73.55;28.42;;;;;;;;;;5097045;28;20122;-62
2023/10/27 02:34:16;;;;;;;74.45;27.45;;;;;;;;;;5114628;28;20467;-62
2023/10/27 02:36:42;;;;;;;75.70;26.92;;;;;;;;;;5113892;28;20471;-63
2023/10/27 02:39:08;;;;;;;74.13;28.20;;;;;;;;;;5114946;28;20048;-62
2023/10/27 02:41:36;;;;;;;72.30;27.40;;;;;;;;;;5114550;28;20039;-63
2023/10/27 02:44:03;;;;;;;67.55;24.70;;;;;;;;;;5114457;28;20043;-62
2023/10/27 02:46:29;;;;;;;72.00;28.38;;;;;;;;;;5114441;27;20043;-63
2023/10/27 02:48:55;;;;;;;69.00;26.98;;;;;;;;;;5096209;28;20039;-63
2023/10/27 02:51:21;;;;;;;71.45;27.17;;;;;;;;;;5114679;28;20043;-63
2023/10/27 02:53:48;;;;;;;65.18;24.52;;;;;;;;;;5103327;27;20382;-63
2023/10/27 02:56:14;;;;;;;70.47;27.20;;;;;;;;;;5135310;27;20478;-62
2023/10/27 02:58:40;;;;;;;64.43;24.83;;;;;;;;;;5116964;27;20043;-62
2023/10/27 03:01:07;;;;;;;68.70;25.33;;;;;;;;;;5135869;27;20126;-62
2023/10/27 03:03:36;;;;;;;67.03;25.75;;;;;;;;;;5134273;27;20058;-62
2023/10/27 03:06:05;;;;;;;68.53;25.27;;;;;;;;;;5135011;27;20093;-62
2023/10/27 03:08:32;;;;;;;63.75;24.60;;;;;;;;;;5094228;27;20051;-62
2023/10/27 03:11:01;;;;;;;60.80;23.95;;;;;;;;;;5076550;28;20083;-62
2023/10/27 03:13:27;;;;;;;55.05;22.30;;;;;;;;;;5093346;28;20075;-62
2023/10/27 03:16:03;;;;;;;57.38;23.15;;;;;;;;;;5094549;28;20416;-62
2023/10/27 03:18:29;;;;;;;51.47;23.02;;;;;;;;;;5076973;28;20047;-62
2023/10/27 03:21:05;;;;;;;59.83;22.40;;;;;;;;;;5076375;28;20083;-62
2023/10/27 03:23:34;;;;;;;55.90;21.65;;;;;;;;;;5094446;28;20437;-62
2023/10/27 03:26:00;;;;;;;49.45;21.50;;;;;;;;;;5076582;28;20444;-62
2023/10/27 03:28:29;;;;;;;51.63;21.95;;;;;;;;;;5094388;28;20507;-62
2023/10/27 03:30:55;;;;;;;49.83;20.30;;;;;;;;;;5093484;28;20477;-62
2023/10/27 03:33:23;;;;;;;52.75;21.52;;;;;;;;;;5093803;28;20043;-62
2023/10/27 03:35:49;;;;;;;48.25;20.55;;;;;;;;;;5094018;28;20368;-62
2023/10/27 03:38:17;;;;;;;52.88;20.67;;;;;;;;;;5123984;28;20371;-62
2023/10/27 03:40:44;;;;;;;47.80;19.40;;;;;;;;;;5121605;28;20153;-62
2023/10/27 03:43:11;;;;;;;52.17;20.33;;;;;;;;;;5095702;28;20050;-62
2023/10/27 03:45:37;;;;;;;47.58;19.27;;;;;;;;;;5114038;28;20040;-62
2023/10/27 03:48:03;;;;;;;53.85;22.02;;;;;;;;;;5114015;28;20040;-62
2023/10/27 03:50:30;;;;;;;49.83;20.08;;;;;;;;;;5113628;28;20086;-62
2023/10/27 03:52:56;;;;;;;50.10;20.30;;;;;;;;;;5113982;28;20123;-62
2023/10/27 03:55:25;;;;;;;50.58;20.38;;;;;;;;;;5113946;28;20048;-62
2023/10/27 03:57:55;;;;;;;50.42;19.95;;;;;;;;;;5113911;28;20043;-62
2023/10/27 04:00:24;;;;;;;52.15;20.77;;;;;;;;;;5113966;28;20079;-62
2023/10/27 04:02:53;;;;;;;51.83;20.02;;;;;;;;;;5113773;28;20108;-63
2023/10/27 04:05:19;;;;;;;50.58;20.45;;;;;;;;;;5112598;28;20040;-63
2023/10/27 04:07:48;;;;;;;49.28;20.75;;;;;;;;;;5094808;28;20378;-62
2023/10/27 04:10:14;;;;;;;52.03;21.50;;;;;;;;;;5113744;28;20040;-62
2023/10/27 04:12:40;;;;;;;49.70;20.15;;;;;;;;;;5113796;28;20372;-62
2023/10/27 04:15:08;;;;;;;51.30;21.38;;;;;;;;;;5096317;28;20054;-63
2023/10/27 04:17:37;;;;;;;53.72;20.85;;;;;;;;;;5117621;28;20172;-62
2023/10/27 04:20:07;;;;;;;55.80;21.58;;;;;;;;;;5117600;28;20126;-62
2023/10/27 04:22:33;;;;;;;47.42;20.33;;;;;;;;;;5117450;28;20047;-62
2023/10/27 04:24:59;;;;;;;50.15;19.42;;;;;;;;;;5117492;28;20050;-62
2023/10/27 04:27:28;;;;;;;51.20;19.83;;;;;;;;;;5123376;27;20059;-62
2023/10/27 04:29:57;;;;;;;46.67;20.48;;;;;;;;;;5138781;27;20043;-62
2023/10/27 04:32:24;;;;;;;50.60;20.98;;;;;;;;;;5137836;27;20045;-62
2023/10/27 04:34:51;;;;;;;48.13;22.25;;;;;;;;;;5120536;27;20043;-62
2023/10/27 04:37:17;;;;;;;53.20;21.23;;;;;;;;;;5119989;27;20487;-62
2023/10/27 04:39:43;;;;;;;53.90;22.50;;;;;;;;;;5138566;27;20141;-62
2023/10/27 04:42:09;;;;;;;53.08;21.42;;;;;;;;;;5120429;27;20053;-62
2023/10/27 04:44:38;;;;;;;53.38;19.98;;;;;;;;;;5137578;27;20082;-62
2023/10/27 04:47:04;;;;;;;48.53;20.08;;;;;;;;;;5137630;27;20158;-62
2023/10/27 04:49:30;;;;;;;49.13;20.23;;;;;;;;;;5102247;28;20189;-61
2023/10/27 04:51:56;;;;;;;50.88;20.77;;;;;;;;;;5117541;28;20047;-61
2023/10/27 04:54:22;;;;;;;51.10;21.10;;;;;;;;;;5098994;28;20062;-61
2023/10/27 04:56:49;;;;;;;44.42;17.70;;;;;;;;;;5098682;28;20051;-61
2023/10/27 04:59:15;;;;;;;46.78;18.75;;;;;;;;;;5116868;28;20051;-62
2023/10/27 05:01:43;;;;;;;46.10;18.80;;;;;;;;;;5116899;28;20044;-62
2023/10/27 05:04:09;;;;;;;45.58;19.45;;;;;;;;;;5116741;28;20089;-62
2023/10/27 05:06:35;;;;;;;41.33;18.08;;;;;;;;;;5117254;28;20456;-62
2023/10/27 05:09:01;;;;;;;42.45;18.75;;;;;;;;;;5117186;28;20040;-63
2023/10/27 05:11:27;;;;;;;42.28;17.92;;;;;;;;;;5116223;28;20468;-62
2023/10/27 05:13:53;;;;;;;42.95;18.77;;;;;;;;;;5116511;28;20058;-62
2023/10/27 05:16:22;;;;;;;42.72;18.60;;;;;;;;;;5116764;28;20039;-62
2023/10/27 05:18:48;;;;;;;45.30;19.15;;;;;;;;;;5122849;27;20043;-62
2023/10/27 05:21:18;;;;;;;47.33;19.33;;;;;;;;;;5118904;27;20046;-63
2023/10/27 05:23:44;;;;;;;43.47;18.52;;;;;;;;;;5118407;27;20070;-62
2023/10/27 05:26:14;;;;;;;42.78;18.45;;;;;;;;;;5118733;27;20042;-62
2023/10/27 05:28:40;;;;;;;43.83;19.05;;;;;;;;;;5137449;27;20054;-62
2023/10/27 05:31:09;;;;;;;45.90;18.67;;;;;;;;;;5136131;27;20429;-62
2023/10/27 05:33:37;;;;;;;43.33;18.00;;;;;;;;;;5136720;27;20125;-62
2023/10/27 05:36:06;;;;;;;45.15;19.20;;;;;;;;;;5137494;27;20051;-62
2023/10/27 05:38:32;;;;;;;42.40;16.60;;;;;;;;;;5118660;27;20091;-62
2023/10/27 05:40:58;;;;;;;43.15;18.85;;;;;;;;;;5118480;27;20087;-62
2023/10/27 05:43:24;;;;;;;39.58;16.15;;;;;;;;;;5137103;27;20071;-62
2023/10/27 05:45:50;;;;;;;43.95;18.67;;;;;;;;;;5136485;27;20042;-62
2023/10/27 05:48:19;;;;;;;40.78;16.67;;;;;;;;;;5136142;27;20382;-62
2023/10/27 05:50:47;;;;;;;42.53;17.23;;;;;;;;;;5136383;27;20043;-62
2023/10/27 05:53:16;;;;;;;42.08;17.65;;;;;;;;;;5136295;27;20035;-62
2023/10/27 05:55:43;;;;;;;45.92;16.88;;;;;;;;;;5136302;27;20118;-62
2023/10/27 05:58:11;;;;;;;44.55;18.33;;;;;;;;;;5136306;27;20047;-62
2023/10/27 06:00:38;;;;;;;41.92;17.70;;;;;;;;;;5135879;27;20531;-62
2023/10/27 06:03:04;;;;;;;40.85;17.65;;;;;;;;;;5115309;28;20039;-62
2023/10/27 06:05:30;;;;;;;45.10;17.00;;;;;;;;;;5088494;28;20079;-62
2023/10/27 06:07:56;;;;;;;40.63;16.00;;;;;;;;;;5104322;27;20388;-62
2023/10/27 06:10:24;;;;;;;43.33;17.33;;;;;;;;;;5080114;28;20054;-62
2023/10/27 06:12:53;;;;;;;47.75;18.42;;;;;;;;;;5076746;28;20035;-62
2023/10/27 06:15:19;;;;;;;37.97;16.23;;;;;;;;;;5111546;28;20056;-62
2023/10/27 06:17:45;;;;;;;48.95;18.02;;;;;;;;;;5115831;28;20096;-62
2023/10/27 06:20:11;;;;;;;36.13;16.52;;;;;;;;;;5115264;28;20039;-62
2023/10/27 06:22:38;;;;;;;42.85;17.55;;;;;;;;;;5115099;28;20047;-62
2023/10/27 06:25:05;;;;;;;40.30;16.48;;;;;;;;;;5115099;28;20460;-62
2023/10/27 06:27:36;;;;;;;44.28;18.90;;;;;;;;;;5106653;27;20161;-62
2023/10/27 06:30:03;;;;;;;45.30;18.08;;;;;;;;;;5117396;27;20497;-62
2023/10/27 06:32:29;;;;;;;44.50;18.17;;;;;;;;;;5117124;27;20054;-62
2023/10/27 06:34:55;;;;;;;43.47;16.15;;;;;;;;;;5135514;27;20078;-61
2023/10/27 06:37:21;;;;;;;41.10;16.63;;;;;;;;;;5117180;27;20087;-62
2023/10/27 06:39:48;;;;;;;36.28;15.48;;;;;;;;;;5134024;27;20475;-62
2023/10/27 06:42:14;;;;;;;42.92;18.02;;;;;;;;;;5135660;27;20042;-62
2023/10/27 06:44:42;;;;;;;44.95;17.05;;;;;;;;;;5099828;27;20078;-62
2023/10/27 06:47:08;;;;;;;41.97;16.63;;;;;;;;;;5132823;27;20042;-62
2023/10/27 06:49:34;;;;;;;44.25;16.77;;;;;;;;;;5119492;27;20074;-62
2023/10/27 06:52:00;;;;;;;44.83;18.15;;;;;;;;;;5116781;27;20483;-62
2023/10/27 06:54:28;;;;;;;43.95;16.67;;;;;;;;;;5135678;27;20050;-62
2023/10/27 06:56:55;;;;;;;46.72;18.20;;;;;;;;;;5116736;27;20062;-62
2023/10/27 06:59:21;;;;;;;50.63;18.08;;;;;;;;;;5135183;27;20121;-62
2023/10/27 07:01:47;;;;;;;45.42;16.90;;;;;;;;;;5124408;27;20032;-62
2023/10/27 07:04:13;;;;;;;45.65;17.95;;;;;;;;;;5113464;28;20035;-62
2023/10/27 07:06:39;;;;;;;39.63;16.02;;;;;;;;;;5090295;28;20040;-62
2023/10/27 07:09:05;;;;;;;44.80;17.40;;;;;;;;;;5098588;28;20048;-62
2023/10/27 07:11:31;;;;;;;47.00;16.52;;;;;;;;;;5081604;28;20046;-62
2023/10/27 07:13:57;;;;;;;41.28;16.55;;;;;;;;;;5096490;28;20387;-62
2023/10/27 07:16:23;;;;;;;42.72;17.63;;;;;;;;;;5113624;28;20479;-62
2023/10/27 07:18:56;;;;;;;44.22;18.52;;;;;;;;;;5114544;28;20495;-62
2023/10/27 07:21:24;;;;;;;39.35;16.60;;;;;;;;;;5089148;28;20169;-62
2023/10/27 07:23:53;;;;;;;40.70;17.38;;;;;;;;;;5094618;28;20376;-62
2023/10/27 07:26:20;;;;;;;43.42;16.73;;;;;;;;;;5093868;28;20057;-62
2023/10/27 07:28:46;;;;;;;43.72;19.08;;;;;;;;;;5093818;28;20051;-62
2023/10/27 07:31:12;;;;;;;42.97;17.05;;;;;;;;;;5096942;28;20046;-62
2023/10/27 07:33:39;;;;;;;43.63;17.50;;;;;;;;;;5101696;28;20467;-62
2023/10/27 07:36:09;;;;;;;36.65;16.08;;;;;;;;;;5116268;28;20107;-62
2023/10/27 07:38:35;;;;;;;;;;;9.30;99.90;;;;;;5117859;28;20086;-62
2023/10/27 07:41:02;;;;;;;44.05;17.38;;;;;;;;;;5134648;28;19967;-62
2023/10/27 07:43:30;;;;;;;40.45;16.55;;;;;;;;;;5116202;28;20525;-62
2023/10/27 07:45:57;;;;;;;45.80;18.15;;;;;;;;;;5116601;28;20047;-62
2023/10/27 07:48:23;;;;;;;44.85;17.92;;;;;;;;;;5100066;28;20092;-62
2023/10/27 07:50:49;;;;;;;42.08;16.63;;;;;;;;;;5116326;28;20471;-62
2023/10/27 07:53:15;;;;;;;38.83;17.55;;;;;;;;;;5118106;28;20044;-62
2023/10/27 07:55:41;;;;;;;38.00;16.92;;;;;;;;;;5100097;28;20055;-63
2023/10/27 07:58:07;;;;;;;38.00;16.27;;;;;;;;;;5117942;28;20074;-62
2023/10/27 08:00:33;;;;;;;40.67;16.63;;;;;;;;;;5117589;28;20486;-62
2023/10/27 08:03:02;;;;;;;36.85;16.92;;;;;;;;;;5117867;28;20441;-62
2023/10/27 08:05:30;;;;;;;38.30;16.40;;;;;;;;;;5082359;28;20460;-62
2023/10/27 08:07:59;;;;;;;36.38;16.10;;;;;;;;;;5062617;28;20080;-62
2023/10/27 08:10:25;;;;;;;41.33;18.13;;;;;;;;;;5079521;28;20133;-62
2023/10/27 08:12:52;;;;;;;35.65;16.55;;;;;;;;;;5098062;28;20044;-62
2023/10/27 08:15:21;;;;;;;38.85;16.15;;;;;;;;;;5118887;28;20047;-62
2023/10/27 08:17:47;;;;;;;37.40;16.33;;;;;;;;;;5117552;28;20044;-62
2023/10/27 08:20:13;;;;;;;34.72;14.80;;;;;;;;;;5099139;28;20054;-62
2023/10/27 08:22:43;;;;;;;38.63;17.20;;;;;;;;;;5116983;28;20043;-62
2023/10/27 08:25:09;;;;;;;36.17;16.48;;;;;;;;;;5117152;28;20142;-62
2023/10/27 08:27:35;;;;;;;34.47;16.70;;;;;;;;;;5124683;27;20035;-63
2023/10/27 08:30:02;;;;;;;37.75;17.52;;;;;;;;;;5134491;27;20062;-63
2023/10/27 08:32:28;;;;;;;34.95;15.20;;;;;;;;;;5117153;28;20436;-63
2023/10/27 08:34:54;;;;;;;35.10;16.27;;;;;;;;;;5116374;27;20078;-63
2023/10/27 08:37:20;;;;;;;37.17;17.45;;;;;;;;;;5136238;27;20042;-62
2023/10/27 08:39:46;;;;;;;34.85;16.33;;;;;;;;;;5121325;27;20043;-62
2023/10/27 08:42:12;;;;;;;35.13;17.75;;;;;;;;;;5100827;27;20051;-62
2023/10/27 08:44:39;;;;;;;37.90;18.00;;;;;;;;;;5124752;27;20034;-62
2023/10/27 08:47:06;;;;;;;37.80;16.85;;;;;;;;;;5116001;28;20429;-62
2023/10/27 08:49:32;;;;;;;39.55;17.85;;;;;;;;;;5127821;27;20130;-63
2023/10/27 08:52:00;;;;;;;40.53;18.98;;;;;;;;;;5129762;27;20188;-62
2023/10/27 08:54:26;;;;;;;39.13;17.70;;;;;;;;;;5116133;27;20039;-62
2023/10/27 08:56:52;;;;;;;35.50;17.60;;;;;;;;;;5115878;28;20054;-62
2023/10/27 08:59:18;;;;;;;34.78;16.83;;;;;;;;;;5124261;27;20453;-62
2023/10/27 09:01:45;;;;;;;40.65;17.70;;;;;;;;;;5114181;28;20120;-62
2023/10/27 09:04:12;;;;;;;39.22;16.80;;;;;;;;;;5114617;27;20035;-62
2023/10/27 09:06:39;;;;;;;36.53;17.90;;;;;;;;;;5097177;28;20043;-63
2023/10/27 09:09:06;;;;;;;39.50;18.45;;;;;;;;;;5116001;28;20071;-63
2023/10/27 09:11:42;;;;;;;36.90;19.73;;;;;;;;;;5079099;28;20543;-63
2023/10/27 09:14:22;;;;;;;35.22;16.90;;;;;;;;;;5092437;27;20123;-63
2023/10/27 09:16:49;;;;;;;;;;;9.80;99.90;;;;;;5112199;27;20047;-63
2023/10/27 09:19:19;;;;;;;34.90;16.60;;;;;;;;;;5082432;28;20343;-63
2023/10/27 09:21:45;;;;;;;41.10;18.73;;;;;;;;;;5097450;28;20479;-63
2023/10/27 09:24:11;;;;;;;36.80;17.33;;;;;;;;;;5115607;28;20580;-63
2023/10/27 09:26:46;;;;;;;38.28;17.95;;;;;;;;;;5113195;28;20130;-63
2023/10/27 09:29:13;;;;;;;37.45;18.63;;;;;;;;;;5113487;28;20043;-63
2023/10/27 09:31:39;;;;;;;36.75;17.15;;;;;;;;;;5114832;28;20039;-63
2023/10/27 09:34:18;;;;;;;36.28;18.88;;;;;;;;;;5097190;28;20044;-63
2023/10/27 09:36:57;;;;;;;41.38;18.05;;;;;;;;;;5091519;28;20092;-62
2023/10/27 09:39:24;;;;;;;38.50;18.08;;;;;;;;;;5111938;28;20058;-63
2023/10/27 09:42:03;;;;;;;41.95;18.35;;;;;;;;;;5095998;28;20035;-63
2023/10/27 09:44:38;;;;;;;39.88;19.38;;;;;;;;;;5109930;27;20042;-63
2023/10/27 09:47:10;;;;;;;41.92;18.48;;;;;;;;;;5113665;28;20588;-63
2023/10/27 09:49:37;;;;;;;42.45;19.65;;;;;;;;;;5115231;28;20394;-64
2023/10/27 09:52:07;;;;;;;43.20;19.15;;;;;;;;;;5114147;28;20075;-64
2023/10/27 09:54:33;;;;;;;47.65;18.63;;;;;;;;;;5112069;27;20038;-64
2023/10/27 09:57:00;;;;;;;42.80;19.00;;;;;;;;;;5098451;28;20043;-65
2023/10/27 09:59:27;;;;;;;45.20;19.98;;;;;;;;;;5091982;28;20067;-65
2023/10/27 10:01:55;;;;;;;43.67;19.60;;;;;;;;;;5110370;28;20636;-66
2023/10/27 10:04:52;;;;;;;40.15;18.85;;;9.60;99.90;;;;;;5104532;28;20039;-66
2023/10/27 10:07:27;;;;;;;46.92;20.23;;;;;;;;;;5107986;27;20039;-65
2023/10/27 10:09:53;;;;;;;44.47;19.75;;;;;;;;;;5114554;27;20120;-65
2023/10/27 10:12:19;;;;;;;44.78;19.45;;;;;;;;;;5083841;27;20039;-66
2023/10/27 10:14:45;;;;;;;49.10;20.95;;;;;;;;;;5096322;28;20052;-65
2023/10/27 10:17:11;;;;;;;48.28;19.90;;;;;;;;;;5091522;28;20543;-66
2023/10/27 10:19:51;;;;;;;45.80;20.55;;;;;;;;;;5094298;28;20054;-65
2023/10/27 10:22:35;;;;;;;43.70;19.30;;;;;;;;;;5094183;28;20066;-64
2023/10/27 10:25:23;;;;;;;47.13;18.67;;;;;;;;;;5094163;28;20437;-64
2023/10/27 10:28:07;;;;;;;48.70;21.15;;;;;;;;;;5092753;28;20032;-64
2023/10/27 10:30:37;;;;;;;47.80;19.00;;;;;;;;;;5094404;28;20040;-65
2023/10/27 10:33:23;;;;;;;44.45;19.75;;;;;;;;;;5075033;28;20101;-66
2023/10/27 10:35:50;;;;;;;59.58;26.25;;;;;;;;;;5094573;28;20056;-66
2023/10/27 10:38:23;;;;;;;45.03;20.85;;;;;;;;;;5093339;28;20036;-66
2023/10/27 10:40:53;;;;;;;46.90;18.58;;;;;;;;;;5094095;28;20075;-66
2023/10/27 10:43:36;;;;;;;45.45;20.45;;;;;;;;;;5093821;28;20043;-67
2023/10/27 10:46:06;;;;;;;39.45;17.65;;;;;;;;;;5094252;28;20130;-66
2023/10/27 10:48:36;;;;;;;45.75;18.52;;;;;;;;;;5089576;28;20046;-66
2023/10/27 10:51:04;;;;;;;41.78;19.58;;;;;;;;;;5057374;28;20050;-66
2023/10/27 10:53:30;;;;;;;43.83;19.48;;;;;;;;;;5094693;28;20085;-67
2023/10/27 10:55:58;;;;;;;45.65;19.77;;;;;;;;;;5098920;28;20119;-66
2023/10/27 10:58:24;;;;;;;44.33;19.65;;;;;;;;;;5094480;28;20472;-66
2023/10/27 11:00:51;;;;;;;42.40;21.25;;;;;;;;;;5090754;28;20036;-66
2023/10/27 11:03:18;;;;;;;43.65;19.73;;;;;;;;;;5092516;28;20357;-66
2023/10/27 11:05:44;;;;;;;40.50;19.08;;;;;;;;;;5093069;28;20044;-64
2023/10/27 11:08:10;;;;;;;38.40;18.90;;;;;;;;;;5090624;28;20055;-65
2023/10/27 11:10:36;;;;;;;41.80;19.48;;;;;;;;;;5092209;28;20071;-66
2023/10/27 11:13:06;;;;;;;41.17;19.05;;;;;;;;;;5090859;28;20115;-65
2023/10/27 11:15:42;;;;;;;46.13;20.20;;;;;;;;;;5109876;28;20044;-66
2023/10/27 11:18:10;;;;;;;43.33;20.00;;;;;;;;;;5112211;28;20038;-65
2023/10/27 11:20:37;;;;;;;44.13;20.88;;;;;;;;;;5113146;28;20098;-66
2023/10/27 11:23:08;;;;;;;37.85;19.42;;;;;;;;;;5094513;28;20152;-65
2023/10/27 11:25:34;;;;;;;39.83;18.77;;;;;;;;;;5111188;28;20092;-65
2023/10/27 11:28:18;;;;;;;45.80;20.48;;;;;;;;;;5095614;28;20039;-66
2023/10/27 11:30:55;;;;;;;37.50;18.67;;;;;;;;;;5096195;28;20065;-66
2023/10/27 11:33:21;;;;;;;41.20;18.25;;;;;;;;;;5126934;28;20043;-65
2023/10/27 11:35:48;;;;;;;38.53;17.92;;;;;;;;;;5116595;28;20078;-65
2023/10/27 11:38:14;;;;;;;39.72;18.65;;;;;;;;;;5116067;28;20042;-65
2023/10/27 11:40:40;;;;;;;35.13;16.67;;;;;;;;;;5134619;28;20078;-65
2023/10/27 11:43:06;;;;;;;33.95;17.63;;;;;;;;;;5133909;28;20035;-65
2023/10/27 11:45:34;;;;;;;36.03;17.70;;;;;;;;;;5131218;28;20042;-65
2023/10/27 11:48:03;;;;;;;34.00;17.83;;;;;;;;;;5113680;28;20039;-65
2023/10/27 11:50:29;;;;;;;34.30;17.65;;;;;;;;;;5095469;28;20464;-65
2023/10/27 11:52:55;;;;;;;32.85;16.90;;;;;;;;;;5105572;28;20388;-65
2023/10/27 11:55:21;;;;;;;38.65;18.42;;;;;;;;;;5093514;28;20040;-65
2023/10/27 11:57:47;;;;;;;34.25;17.08;;;;;;;;;;5093560;28;20040;-65
2023/10/27 12:00:15;;;;;;;34.15;18.00;;;;;;;;;;5102274;28;20597;-65
2023/10/27 12:02:41;;;;;;;29.67;16.17;;;;;;;;;;5113628;28;20385;-65
2023/10/27 12:05:07;;;;;;;29.27;15.95;;;;;;;;;;5112727;28;20047;-64
2023/10/27 12:07:33;;;;;;;32.38;16.45;;;;;;;;;;5133666;28;20122;-64
2023/10/27 12:10:00;;;;;;;30.85;16.08;;;;;;;;;;5118010;28;20035;-65
2023/10/27 12:12:26;;;;;;;32.13;16.30;;;;;;;;;;5113779;28;20047;-65
2023/10/27 12:14:52;;;;;;;26.77;14.63;;;;;;;;;;5095117;28;20464;-65
2023/10/27 12:17:18;;;;;;;33.75;16.70;;;;;;;;;;5112624;28;20502;-65
2023/10/27 12:19:44;;;;;;;30.80;15.98;;;;;;;;;;5113713;28;20044;-64
2023/10/27 12:22:11;;;;;;;28.58;16.10;;;;;;;;;;5113165;28;20092;-65
2023/10/27 12:24:37;;;;;;;26.65;14.48;;;;;;;;;;5113495;28;20040;-64
2023/10/27 12:27:04;;;;;;;27.00;14.88;;;;;;;;;;5095916;28;20043;-64
2023/10/27 12:29:31;;;;;;;26.88;15.07;;;;;;;;;;5113209;28;20048;-64
2023/10/27 12:31:57;;;;;;;30.85;15.77;;;;;;;;;;5114318;28;20349;-64
2023/10/27 12:34:23;;;;;;;29.70;15.45;;;;;;;;;;5120062;28;20463;-65
2023/10/27 12:36:49;;;;;;;31.88;15.57;;;;;;;;;;5110298;27;20038;-64
2023/10/27 12:39:15;;;;;;;30.13;15.68;;;;;;;;;;5136047;27;20035;-64
2023/10/27 12:41:41;;;;;;;26.92;15.48;;;;;;;;;;5116932;28;20464;-64
2023/10/27 12:44:07;;;;;;;29.05;15.52;;;;;;;;;;5098038;28;20126;-64
2023/10/27 12:46:33;;;;;;;27.25;14.30;;;;;;;;;;5116534;28;20467;-64
2023/10/27 12:49:01;;;;;;;26.38;15.68;;;;;;;;;;5117117;28;20047;-64
2023/10/27 12:51:27;;;;;;;27.23;14.60;;;;;;;;;;5117563;28;20043;-64
2023/10/27 12:53:54;;;;;;;27.30;15.93;;;;;;;;;;5117047;27;20044;-64
2023/10/27 12:56:20;;;;;;;30.15;15.00;;;;;;;;;;5137404;27;20114;-64
2023/10/27 12:58:46;;;;;;;29.00;16.38;;;;;;;;;;5137469;27;20042;-64
2023/10/27 13:01:12;;;;;;;27.02;14.98;;;;;;;;;;5138039;27;20095;-64
2023/10/27 13:03:39;;;;;;;28.33;13.93;;;;;;;;;;5118017;27;20075;-63
2023/10/27 13:06:05;;;;;;;25.40;14.07;;;;;;;;;;5098907;28;20047;-64
2023/10/27 13:08:32;;;;;;;28.75;15.35;;;;;;;;;;5116455;28;20035;-64
2023/10/27 13:11:03;;;;;;;27.08;15.38;;;;;;;;;;5116924;28;20093;-64
2023/10/27 13:13:29;;;;;;;26.90;15.20;;;;;;;;;;5116370;28;20052;-64
2023/10/27 13:15:55;;;;;;;24.92;14.30;;;;;;;;;;5116659;28;20047;-64
2023/10/27 13:18:21;;;;;;;27.30;14.65;;;;;;;;;;5115613;28;20040;-64
2023/10/27 13:20:48;;;;;;;24.65;14.38;;;;;;;;;;5107475;28;20056;-63
2023/10/27 13:23:14;;;;;;;26.17;14.90;;;;;;;;;;5115091;27;20051;-64
2023/10/27 13:25:40;;;;;;;24.85;14.35;;;;;;;;;;5112559;28;20047;-65
2023/10/27 13:28:07;;;;;;;29.13;14.30;;;;;;;;;;5108593;28;20043;-64
2023/10/27 13:30:34;;;;;;;28.02;14.90;;;;;;;;;;5114218;28;20055;-63
2023/10/27 13:33:02;;;;;;;24.00;14.02;;;;;;;;;;5114046;28;20050;-64
2023/10/27 13:35:29;;;;;;;25.98;14.35;;;;;;;;;;5096035;28;20084;-64
2023/10/27 13:38:04;;;;;;;26.10;14.38;;;;;;;;;;5078130;28;20532;-63
2023/10/27 13:40:34;;;;;;;31.45;15.23;;;;;;;;;;5111361;28;20043;-64
2023/10/27 13:43:00;;;;;;;26.88;14.38;;;;;;;;;;5113768;28;20040;-64
2023/10/27 13:45:26;;;;;;;29.88;14.70;;;;;;;;;;5112745;28;20043;-64
2023/10/27 13:47:52;;;;;;;27.75;14.98;;;;;;;;;;5108682;28;20048;-64
2023/10/27 13:50:20;;;;;;;23.40;13.57;;;;;;;;;;5108532;28;20089;-64
2023/10/27 13:52:46;;;;;;;26.50;13.77;;;;;;;;;;5110433;28;20086;-64
2023/10/27 13:55:12;;;;;;;24.10;13.43;;;;;;;;;;5112697;28;20146;-64
2023/10/27 13:57:38;;;;;;;25.15;13.30;;;;;;;;;;5109850;28;20505;-65
2023/10/27 14:00:09;;;;;;;23.13;12.18;;;;;;;;;;5111941;28;20078;-65
2023/10/27 14:02:35;;;;;;;24.42;13.60;;;;;;;;;;5111471;28;20040;-65
2023/10/27 14:05:02;;;;;;;24.70;12.50;;;;;;;;;;5113491;28;20036;-65
2023/10/27 14:07:28;;;;;;;22.60;11.75;;;;;;;;;;5112302;28;20039;-64
2023/10/27 14:09:54;;;;;;;19.80;11.02;;;;;;;;;;5112119;28;20042;-65
2023/10/27 14:12:20;;;;;;;21.13;11.95;;;;;;;;;;5111838;28;20569;-65
2023/10/27 14:14:46;;;;;;;20.15;11.52;;;;;;;;;;5113709;27;20487;-65
2023/10/27 14:17:12;;;;;;;18.38;9.73;;;;;;;;;;5108935;28;20047;-65
2023/10/27 14:19:38;;;;;;;17.67;10.07;;;;;;;;;;5113847;28;20039;-65